Terminal Aerodrome Forecast
Issued by NWS

Home | Current Version | Previous Version | Text Only | Print | Product List | Glossary On
Versions: 1 2 3 4 5 6 7 8 9 10 11 12 13
949
FTUS41 KBTV 242331
TAFSLK
TAF
KSLK 242331Z 2500/2524 VRB03KT P6SM FEW250
     FM250300 00000KT P6SM FEW250 WS020/22030KT
     FM250800 21004KT P6SM SCT100
     FM251300 22008KT P6SM VCSH BKN070
     FM251600 22012G19KT P6SM VCSH BKN040=

USA.gov is the U.S. government's official web portal to all federal, state and local government web resources and services.